Time;durP1;ratioP1;P1;durP2;ratioP2;P2;SDS_P1;SDS_P2;PMS_P1;PMS_P2;Temp;Humidity;BMP_temperature;BMP_pressure;BME280_temperature;BME280_humidity;BME280_pressure;Samples;Min_cycle;Max_cycle;Signal;HPM_P1;HPM_P2
2021/11/03 00:02:25;;;;;;;7.97;4.50;;;7.40;92.10;;;;;;4951486;29;20970;-74
2021/11/03 00:04:51;;;;;;;5.97;4.30;;;7.50;91.90;;;;;;4953386;28;20547;-73
2021/11/03 00:07:17;;;;;;;7.03;4.13;;;7.40;92.00;;;;;;4954750;29;20482;-73
2021/11/03 00:09:43;;;;;;;7.43;4.37;;;7.50;92.00;;;;;;4948897;28;20934;-72
2021/11/03 00:12:13;;;;;;;7.50;4.70;;;7.50;92.00;;;;;;4952902;29;20447;-74
2021/11/03 00:14:39;;;;;;;6.30;4.50;;;7.50;91.90;;;;;;4951432;29;20578;-74
2021/11/03 00:17:06;;;;;;;7.80;4.77;;;7.50;91.50;;;;;;4953688;28;20452;-73
2021/11/03 00:19:32;;;;;;;5.23;4.07;;;7.40;91.40;;;;;;4953326;28;20471;-73
2021/11/03 00:21:57;;;;;;;7.60;4.70;;;7.40;91.60;;;;;;4953856;28;20946;-73
2021/11/03 00:24:23;;;;;;;6.20;4.47;;;7.40;91.50;;;;;;4945939;28;20572;-73
2021/11/03 00:26:49;;;;;;;6.63;5.00;;;7.40;91.80;;;;;;4950124;29;20428;-74
2021/11/03 00:29:15;;;;;;;7.50;5.13;;;7.30;92.20;;;;;;4951954;29;20188;-74
2021/11/03 00:31:40;;;;;;;8.40;5.47;;;7.30;92.10;;;;;;4953480;28;20979;-73
2021/11/03 00:34:06;;;;;;;9.73;4.73;;;7.20;92.20;;;;;;4951866;28;20203;-73
2021/11/03 00:36:33;;;;;;;10.50;6.33;;;7.20;92.40;;;;;;4954574;29;20550;-74
2021/11/03 00:38:59;;;;;;;10.23;5.80;;;7.20;92.60;;;;;;4953594;28;20471;-74
2021/11/03 00:41:25;;;;;;;9.47;5.43;;;7.20;92.70;;;;;;4948486;28;20458;-74
2021/11/03 00:43:52;;;;;;;11.10;6.30;;;7.20;92.70;;;;;;4959767;28;20184;-71
2021/11/03 00:46:19;;;;;;;8.30;5.70;;;7.20;92.80;;;;;;4974266;28;21258;-71
2021/11/03 00:48:44;;;;;;;11.20;6.37;;;7.30;92.60;;;;;;4973028;28;20419;-72
2021/11/03 00:51:11;;;;;;;8.20;5.77;;;7.30;92.50;;;;;;4942344;29;20449;-73
2021/11/03 00:53:37;;;;;;;9.47;5.90;;;7.30;92.50;;;;;;4951259;28;20231;-74
2021/11/03 00:56:03;;;;;;;8.30;5.90;;;7.30;92.60;;;;;;4952176;28;20501;-73
2021/11/03 00:58:28;;;;;;;8.67;5.60;;;7.30;92.80;;;;;;4944604;29;20218;-72
2021/11/03 01:00:54;;;;;;;8.43;5.63;;;7.30;93.00;;;;;;4949117;28;20432;-73
2021/11/03 01:03:20;;;;;;;9.30;5.93;;;7.50;93.10;;;;;;4950703;29;20358;-75
2021/11/03 01:05:46;;;;;;;7.80;5.17;;;7.50;93.10;;;;;;4951371;28;20212;-73
2021/11/03 01:08:13;;;;;;;6.77;4.67;;;7.60;92.90;;;;;;4948782;28;20458;-72
2021/11/03 01:10:45;;;;;;;7.10;4.33;;;7.60;92.30;;;;;;4953665;28;20188;-73
2021/11/03 01:13:12;;;;;;;6.10;4.30;;;7.50;92.00;;;;;;4950481;28;20909;-73
2021/11/03 01:15:39;;;;;;;6.93;4.40;;;7.60;92.10;;;;;;4950992;28;20505;-73
2021/11/03 01:18:04;;;;;;;9.50;6.30;;;7.70;92.00;;;;;;4951260;28;20451;-75
2021/11/03 01:20:31;;;;;;;7.53;5.90;;;7.70;91.60;;;;;;4951524;28;21016;-74
2021/11/03 01:22:57;;;;;;;11.13;6.27;;;7.60;91.90;;;;;;4950999;28;20202;-74
2021/11/03 01:25:25;;;;;;;10.03;5.97;;;7.50;92.10;;;;;;4950496;28;20448;-73
2021/11/03 01:27:50;;;;;;;8.30;6.00;;;7.50;92.60;;;;;;4950186;29;20458;-72
2021/11/03 01:30:19;;;;;;;11.70;5.90;;;7.50;92.30;;;;;;4951662;28;20871;-74
2021/11/03 01:32:46;;;;;;;7.80;5.40;;;7.40;92.70;;;;;;4951232;28;20198;-70
2021/11/03 01:35:12;;;;;;;11.23;6.90;;;7.40;92.90;;;;;;4950852;28;20537;-74
2021/11/03 01:37:39;;;;;;;9.80;6.20;;;7.50;92.70;;;;;;4951163;28;20487;-73
2021/11/03 01:40:09;;;;;;;9.83;6.67;;;7.50;92.70;;;;;;4951420;28;20502;-73
2021/11/03 01:42:38;;;;;;;9.00;6.53;;;7.50;92.80;;;;;;4949754;29;20428;-73
2021/11/03 01:45:09;;;;;;;10.47;6.20;;;7.30;92.90;;;;;;4950309;28;20462;-73
2021/11/03 01:47:56;;;;;;;9.80;6.40;;;7.30;93.20;;;;;;4949912;29;20431;-75
2021/11/03 01:50:43;;;;;;;10.50;6.80;;;7.20;93.70;;;;;;4948762;28;20969;-72
2021/11/03 01:53:15;;;;;;;10.47;6.53;;;7.20;93.90;;;;;;4950930;28;20771;-74
2021/11/03 01:56:09;;;;;;;11.53;6.63;;;7.10;94.10;;;;;;4945396;29;20459;-76
2021/11/03 01:59:05;;;;;;;8.23;6.23;;;7.10;94.30;;;;;;4942922;29;20522;-74
2021/11/03 02:01:31;;;;;;;6.77;5.10;;;7.20;94.70;;;;;;4943944;28;20482;-73
2021/11/03 02:03:57;;;;;;;9.00;5.10;;;7.20;94.60;;;;;;4946956;28;20440;-73
2021/11/03 02:06:24;;;;;;;9.00;5.77;;;7.20;94.50;;;;;;4950757;28;20655;-74
2021/11/03 02:08:51;;;;;;;9.80;5.40;;;7.20;94.40;;;;;;4951042;29;20431;-72
2021/11/03 02:11:18;;;;;;;10.00;6.30;;;7.20;94.40;;;;;;4949417;28;20443;-75
2021/11/03 02:13:45;;;;;;;8.73;6.13;;;7.20;94.80;;;;;;4948162;29;20439;-73
2021/11/03 02:16:14;;;;;;;10.90;6.47;;;7.30;95.00;;;;;;4950762;28;20538;-74
2021/11/03 02:18:41;;;;;;;7.67;4.53;;;7.30;95.10;;;;;;4950101;29;20570;-72
2021/11/03 02:21:10;;;;;;;8.77;5.03;;;7.40;95.10;;;;;;4943571;28;20526;-73
2021/11/03 02:24:10;;;;;;;7.07;5.70;;;7.50;95.30;;;;;;4944623;29;20450;-73
2021/11/03 02:26:42;;;;;;;9.20;5.20;;;7.50;95.20;;;;;;4951135;29;20937;-73
2021/11/03 02:29:09;;;;;;;6.60;4.87;;;7.60;95.30;;;;;;4951381;29;20438;-74
2021/11/03 02:31:46;;;;;;;13.50;5.77;;;7.60;95.40;;;;;;4951235;28;20986;-74
2021/11/03 02:34:28;;;;;;;11.33;5.73;;;7.60;95.50;;;;;;4951912;28;20427;-74
2021/11/03 02:36:59;;;;;;;7.60;4.30;;;7.50;95.50;;;;;;4952814;28;20431;-74
2021/11/03 02:39:41;;;;;;;6.17;3.87;;;7.50;95.50;;;;;;4953451;28;20509;-74
2021/11/03 02:42:08;;;;;;;6.67;4.80;;;7.60;95.20;;;;;;4954741;28;20428;-75
2021/11/03 02:44:37;;;;;;;9.03;5.30;;;7.40;94.90;;;;;;4960495;28;20980;-73
2021/11/03 02:47:04;;;;;;;6.40;4.40;;;7.30;95.00;;;;;;4962059;28;20523;-73
2021/11/03 02:49:30;;;;;;;7.73;5.40;;;7.30;95.40;;;;;;4956708;29;20440;-74
2021/11/03 02:51:56;;;;;;;7.33;5.63;;;7.10;95.40;;;;;;4953467;28;20431;-73
2021/11/03 02:54:22;;;;;;;9.97;6.53;;;6.90;95.90;;;;;;4954818;28;20822;-73
2021/11/03 02:56:53;;;;;;;7.90;5.43;;;6.90;96.30;;;;;;4952823;29;20428;-73
2021/11/03 02:59:21;;;;;;;10.13;6.03;;;6.90;96.50;;;;;;4954234;28;21065;-73
2021/11/03 03:01:58;;;;;;;10.80;6.40;;;7.00;96.80;;;;;;4952815;29;20431;-74
2021/11/03 03:04:25;;;;;;;7.30;5.50;;;7.10;97.10;;;;;;4951439;28;20446;-72
2021/11/03 03:06:52;;;;;;;12.03;6.03;;;7.10;97.20;;;;;;4955360;28;20438;-73
2021/11/03 03:09:18;;;;;;;10.57;6.10;;;7.10;96.70;;;;;;4952135;28;20930;-73
2021/11/03 03:11:49;;;;;;;7.00;4.30;;;7.00;96.40;;;;;;4950876;29;20428;-73
2021/11/03 03:14:16;;;;;;;9.33;5.23;;;7.00;96.50;;;;;;4951583;28;20451;-73
2021/11/03 03:16:43;;;;;;;6.80;4.63;;;7.00;96.50;;;;;;4949038;29;20478;-73
2021/11/03 03:19:10;;;;;;;6.73;4.37;;;7.00;96.50;;;;;;4952371;28;20471;-73
2021/11/03 03:21:36;;;;;;;5.77;4.00;;;7.00;96.70;;;;;;4948235;29;20537;-73
2021/11/03 03:24:04;;;;;;;6.93;4.50;;;7.10;96.90;;;;;;4951691;28;20459;-73
2021/11/03 03:26:30;;;;;;;6.00;4.13;;;7.20;96.90;;;;;;4949937;29;20423;-73
2021/11/03 03:28:57;;;;;;;6.80;4.33;;;7.20;96.90;;;;;;4950983;29;20436;-73
2021/11/03 03:31:25;;;;;;;7.30;3.67;;;7.20;96.60;;;;;;4952169;28;20506;-73
2021/11/03 03:33:52;;;;;;;6.20;4.30;;;7.30;96.60;;;;;;4951721;28;20828;-74
2021/11/03 03:36:18;;;;;;;5.40;4.00;;;7.30;96.30;;;;;;4954654;28;20461;-73
2021/11/03 03:38:44;;;;;;;4.93;3.30;;;7.40;95.80;;;;;;4954660;29;20467;-73
2021/11/03 03:41:10;;;;;;;4.50;3.53;;;7.40;95.50;;;;;;4954360;29;20419;-73
2021/11/03 03:43:36;;;;;;;6.50;3.83;;;7.30;95.30;;;;;;4954362;29;20961;-74
2021/11/03 03:46:02;;;;;;;3.97;3.20;;;7.30;95.30;;;;;;4958788;28;20538;-74
2021/11/03 03:48:28;;;;;;;8.60;4.03;;;7.30;95.20;;;;;;4950199;29;20427;-73
2021/11/03 03:50:54;;;;;;;6.40;4.10;;;7.30;95.30;;;;;;4959372;28;20486;-74
2021/11/03 03:53:23;;;;;;;4.40;3.07;;;7.30;95.10;;;;;;4955654;28;20249;-74
2021/11/03 03:55:50;;;;;;;9.03;4.20;;;7.20;95.20;;;;;;4953767;28;20534;-73
2021/11/03 03:58:17;;;;;;;6.17;4.33;;;7.30;95.10;;;;;;4955881;28;20455;-73
2021/11/03 04:00:45;;;;;;;5.23;3.67;;;7.30;95.20;;;;;;4960384;28;20443;-74
2021/11/03 04:03:11;;;;;;;3.53;2.90;;;7.30;95.30;;;;;;4959355;28;20439;-73
2021/11/03 04:05:37;;;;;;;3.97;3.20;;;7.40;95.40;;;;;;4958587;28;20462;-73
2021/11/03 04:08:03;;;;;;;4.47;3.33;;;7.40;95.50;;;;;;4958595;28;20435;-73
2021/11/03 04:10:29;;;;;;;4.10;2.97;;;7.50;95.40;;;;;;4954709;29;20432;-73
2021/11/03 04:12:54;;;;;;;6.40;3.90;;;7.50;95.30;;;;;;4958946;28;20432;-74
2021/11/03 04:15:21;;;;;;;5.50;3.43;;;7.50;95.10;;;;;;4958368;28;20214;-74
2021/11/03 04:17:47;;;;;;;5.17;3.50;;;7.50;95.30;;;;;;4966852;28;20207;-73
2021/11/03 04:20:16;;;;;;;7.10;3.30;;;7.60;95.40;;;;;;4953560;28;20473;-73
2021/11/03 04:22:43;;;;;;;5.10;3.70;;;7.50;95.30;;;;;;4953883;28;20428;-72
2021/11/03 04:25:10;;;;;;;6.33;3.50;;;7.50;95.50;;;;;;4954403;28;20451;-72
2021/11/03 04:27:36;;;;;;;5.67;3.67;;;7.60;95.50;;;;;;4954832;28;20432;-74
2021/11/03 04:30:03;;;;;;;5.80;3.87;;;7.50;95.40;;;;;;4954774;29;20449;-74
2021/11/03 04:32:29;;;;;;;4.90;3.60;;;7.50;95.50;;;;;;4948077;29;20184;-73
2021/11/03 04:34:55;;;;;;;7.67;4.67;;;7.50;95.50;;;;;;4953967;28;20459;-73
2021/11/03 04:37:21;;;;;;;6.53;4.20;;;7.60;95.60;;;;;;4954983;28;20195;-72
2021/11/03 04:39:46;;;;;;;6.53;5.10;;;7.50;95.10;;;;;;4954806;29;20220;-73
2021/11/03 04:42:12;;;;;;;10.87;5.63;;;7.50;95.20;;;;;;4954841;28;20202;-72
2021/11/03 04:44:39;;;;;;;8.20;4.60;;;7.50;95.30;;;;;;4947494;28;20813;-73
2021/11/03 04:47:05;;;;;;;9.03;5.43;;;7.50;95.40;;;;;;4952111;28;20909;-73
2021/11/03 04:49:31;;;;;;;7.57;5.37;;;7.50;95.30;;;;;;4954475;28;20515;-72
2021/11/03 04:51:57;;;;;;;10.67;6.00;;;7.40;95.20;;;;;;4952957;29;20432;-71
2021/11/03 04:54:23;;;;;;;9.40;5.60;;;7.40;95.10;;;;;;4950196;28;20220;-72
2021/11/03 04:56:50;;;;;;;7.27;4.80;;;7.40;95.20;;;;;;4953907;29;20434;-71
2021/11/03 04:59:17;;;;;;;9.97;5.90;;;7.40;95.20;;;;;;4950290;29;20223;-72
2021/11/03 05:01:43;;;;;;;6.47;4.07;;;7.40;95.30;;;;;;4954834;29;20927;-71
2021/11/03 05:04:08;;;;;;;5.17;3.73;;;7.40;95.30;;;;;;4963149;28;20423;-73
2021/11/03 05:06:36;;;;;;;6.90;4.13;;;7.50;95.00;;;;;;4967800;29;20187;-71
2021/11/03 05:09:05;;;;;;;7.30;4.43;;;7.50;94.80;;;;;;4962545;29;20219;-72
2021/11/03 05:11:31;;;;;;;6.93;4.23;;;7.60;94.90;;;;;;4958971;29;20420;-72
2021/11/03 05:13:57;;;;;;;6.70;4.20;;;7.70;94.50;;;;;;4957309;28;20843;-74
2021/11/03 05:16:24;;;;;;;7.13;4.80;;;7.70;94.10;;;;;;4962083;29;20191;-71
2021/11/03 05:18:50;;;;;;;6.07;4.60;;;7.70;93.90;;;;;;4960721;28;20679;-75
2021/11/03 05:21:16;;;;;;;7.57;5.27;;;7.70;94.00;;;;;;4962158;28;20456;-72
2021/11/03 05:23:42;;;;;;;5.93;4.47;;;7.70;94.00;;;;;;4954914;29;20419;-73
2021/11/03 05:26:09;;;;;;;7.87;5.13;;;7.70;94.10;;;;;;4962317;28;20451;-72
2021/11/03 05:28:36;;;;;;;7.70;5.10;;;7.70;94.00;;;;;;4961920;29;20559;-75
2021/11/03 05:31:01;;;;;;;8.87;5.77;;;7.70;94.20;;;;;;4961423;28;20526;-76
2021/11/03 05:33:27;;;;;;;12.73;5.80;;;7.70;94.40;;;;;;4960388;28;20454;-74
2021/11/03 05:35:53;;;;;;;9.07;4.90;;;7.50;94.30;;;;;;4955775;28;20241;-72
2021/11/03 05:38:19;;;;;;;7.70;5.30;;;7.60;94.50;;;;;;4948704;29;20192;-73
2021/11/03 05:40:45;;;;;;;9.60;5.40;;;7.60;94.60;;;;;;4955441;29;20432;-72
2021/11/03 05:43:11;;;;;;;14.03;5.73;;;7.60;94.40;;;;;;4963026;28;20203;-72
2021/11/03 05:45:36;;;;;;;11.80;5.63;;;7.50;94.40;;;;;;4955666;28;20819;-72
2021/11/03 05:48:03;;;;;;;10.17;5.63;;;7.50;94.70;;;;;;4949568;29;20659;-71
2021/11/03 05:50:32;;;;;;;8.70;5.30;;;7.50;94.80;;;;;;4948486;29;20767;-72
2021/11/03 05:52:59;;;;;;;6.07;5.07;;;7.50;94.90;;;;;;4953482;28;20926;-70
2021/11/03 05:55:24;;;;;;;9.60;5.53;;;7.60;95.20;;;;;;4953134;28;20876;-70
2021/11/03 05:57:51;;;;;;;9.27;5.40;;;7.60;95.30;;;;;;4953367;28;20427;-70
2021/11/03 06:00:27;;;;;;;9.03;5.40;;;7.70;95.40;;;;;;4951425;29;20218;-72
2021/11/03 06:02:52;;;;;;;10.53;6.00;;;7.70;95.30;;;;;;4949664;29;20456;-71
2021/11/03 06:05:19;;;;;;;11.20;5.83;;;7.60;95.20;;;;;;4950480;28;20472;-72
2021/11/03 06:08:05;;;;;;;9.83;5.40;;;7.70;95.40;;;;;;4952439;29;20180;-72
2021/11/03 06:10:36;;;;;;;8.80;5.53;;;7.70;95.20;;;;;;4952917;29;20423;-72
2021/11/03 06:13:03;;;;;;;8.13;5.20;;;7.70;95.10;;;;;;4953672;28;20427;-72
2021/11/03 06:15:30;;;;;;;7.97;5.60;;;7.70;95.20;;;;;;4952582;28;20443;-74
2021/11/03 06:17:56;;;;;;;9.70;6.50;;;7.70;95.40;;;;;;4953878;28;20538;-72
2021/11/03 06:20:23;;;;;;;8.33;5.37;;;7.70;95.40;;;;;;4952809;29;20559;-71
2021/11/03 06:22:50;;;;;;;8.33;5.00;;;7.60;95.50;;;;;;4946257;28;20808;-72
2021/11/03 06:25:17;;;;;;;9.50;5.30;;;7.60;95.00;;;;;;4949191;28;20448;-72
2021/11/03 06:27:44;;;;;;;9.60;5.30;;;7.70;95.10;;;;;;4952924;28;20419;-72
2021/11/03 06:30:14;;;;;;;10.00;5.53;;;7.80;95.00;;;;;;4951188;28;20518;-74
2021/11/03 06:32:39;;;;;;;11.37;5.27;;;7.80;95.00;;;;;;4952295;28;20942;-72
2021/11/03 06:35:06;;;;;;;6.67;4.80;;;7.80;95.00;;;;;;4958233;28;20465;-71
2021/11/03 06:37:32;;;;;;;14.33;4.90;;;7.80;95.10;;;;;;4951153;29;20184;-70
2021/11/03 06:39:58;;;;;;;8.40;5.30;;;7.90;94.60;;;;;;4951194;29;20606;-72
2021/11/03 06:42:24;;;;;;;6.57;4.27;;;8.00;94.50;;;;;;4945694;29;21060;-71
2021/11/03 06:44:51;;;;;;;7.73;4.40;;;8.00;94.30;;;;;;4951043;28;20207;-71
2021/11/03 06:47:19;;;;;;;7.20;4.53;;;8.10;93.90;;;;;;4951953;28;20797;-72
2021/11/03 06:49:46;;;;;;;7.70;5.03;;;8.20;93.60;;;;;;4951825;28;20439;-71
2021/11/03 06:52:12;;;;;;;5.90;3.80;;;8.10;93.50;;;;;;4949305;28;20946;-71
2021/11/03 06:54:38;;;;;;;5.30;3.77;;;8.20;93.60;;;;;;4960597;29;20879;-72
2021/11/03 06:57:04;;;;;;;5.93;4.43;;;8.30;93.40;;;;;;4952035;29;20460;-72
2021/11/03 06:59:30;;;;;;;8.03;4.60;;;8.20;92.80;;;;;;4945081;28;20204;-72
2021/11/03 07:01:56;;;;;;;8.60;4.60;;;8.20;92.80;;;;;;4952003;29;20531;-71
2021/11/03 07:04:22;;;;;;;7.10;4.53;;;8.10;93.10;;;;;;4945780;29;20532;-72
2021/11/03 07:06:48;;;;;;;8.73;5.17;;;8.10;93.20;;;;;;4951176;28;20275;-71
2021/11/03 07:09:15;;;;;;;9.10;4.60;;;8.20;93.50;;;;;;4942267;28;20181;-74
2021/11/03 07:11:41;;;;;;;6.73;4.20;;;8.40;93.30;;;;;;4952612;29;20419;-72
2021/11/03 07:14:08;;;;;;;7.00;4.17;;;8.40;93.00;;;;;;4949471;28;20930;-73
2021/11/03 07:16:35;;;;;;;10.33;4.00;;;8.50;92.60;;;;;;4954532;28;21770;-72
2021/11/03 07:19:01;;;;;;;12.60;4.20;;;8.50;92.10;;;;;;4949196;28;20531;-72
2021/11/03 07:21:27;;;;;;;7.10;4.07;;;8.50;91.50;;;;;;4952078;29;20519;-72
2021/11/03 07:23:53;;;;;;;6.63;4.03;;;8.50;90.80;;;;;;4950676;29;20951;-71
2021/11/03 07:26:19;;;;;;;5.00;3.83;;;8.50;90.70;;;;;;4956926;28;20443;-72
2021/11/03 07:28:45;;;;;;;8.07;4.57;;;8.50;90.90;;;;;;4952917;29;20206;-73
2021/11/03 07:31:11;;;;;;;11.10;4.90;;;8.50;91.30;;;;;;4954889;28;20934;-73
2021/11/03 07:33:38;;;;;;;5.83;4.30;;;8.50;91.50;;;;;;4951174;29;20199;-72
2021/11/03 07:36:06;;;;;;;7.37;4.40;;;8.60;91.90;;;;;;4951174;29;20447;-73
2021/11/03 07:38:32;;;;;;;12.00;5.00;;;8.70;91.90;;;;;;4953744;29;20526;-72
2021/11/03 07:40:58;;;;;;;7.67;4.63;;;8.80;91.90;;;;;;4956949;29;20522;-71
2021/11/03 07:43:26;;;;;;;14.53;4.80;;;8.70;90.10;;;;;;4962770;29;20189;-75
2021/11/03 07:45:54;;;;;;;7.80;4.83;;;8.50;90.70;;;;;;4969217;28;20956;-72
2021/11/03 07:48:21;;;;;;;8.40;4.70;;;8.40;91.30;;;;;;4954131;29;20507;-71
2021/11/03 07:50:54;;;;;;;8.13;4.93;;;8.40;91.60;;;;;;4956317;29;20438;-74
2021/11/03 07:53:21;;;;;;;7.40;4.10;;;8.60;92.00;;;;;;4955127;28;20434;-74
2021/11/03 07:55:54;;;;;;;6.80;4.63;;;8.70;91.50;;;;;;4955264;28;20454;-72
2021/11/03 07:58:23;;;;;;;7.03;4.27;;;8.80;90.80;;;;;;4955207;29;20428;-73
2021/11/03 08:00:50;;;;;;;6.83;3.53;;;8.70;89.00;;;;;;4953796;29;20471;-73
2021/11/03 08:03:16;;;;;;;7.13;3.20;;;8.80;88.60;;;;;;4955223;28;20443;-71
2021/11/03 08:05:42;;;;;;;3.20;2.50;;;8.80;87.80;;;;;;4952596;29;20985;-75
2021/11/03 08:08:11;;;;;;;7.60;2.57;;;9.00;87.60;;;;;;4952542;29;20451;-74
2021/11/03 08:10:38;;;;;;;7.60;4.20;;;9.10;87.70;;;;;;4954907;29;20627;-73
2021/11/03 08:13:05;;;;;;;10.90;4.70;;;9.20;87.60;;;;;;4954052;28;20426;-72
2021/11/03 08:15:31;;;;;;;9.60;4.37;;;9.20;86.90;;;;;;4953432;28;20451;-73
2021/11/03 08:17:58;;;;;;;6.50;3.87;;;9.30;87.10;;;;;;4955077;28;20451;-73
2021/11/03 08:20:26;;;;;;;4.90;3.70;;;9.40;86.90;;;;;;4953155;28;20478;-72
2021/11/03 08:22:54;;;;;;;9.83;4.23;;;9.50;86.50;;;;;;4951679;28;20424;-70
2021/11/03 08:25:20;;;;;;;4.43;3.40;;;9.50;85.90;;;;;;4954919;28;20446;-70
2021/11/03 08:27:46;;;;;;;6.40;3.10;;;9.60;85.20;;;;;;4952155;28;20419;-71
2021/11/03 08:30:13;;;;;;;6.63;3.63;;;9.60;84.70;;;;;;4955304;29;20420;-69
2021/11/03 08:32:54;;;;;;;4.30;3.33;;;9.70;85.20;;;;;;4954210;28;20188;-70
2021/11/03 08:35:25;;;;;;;10.50;4.60;;;9.70;85.50;;;;;;4952576;29;21003;-71
2021/11/03 08:37:52;;;;;;;5.73;3.20;;;9.60;84.60;;;;;;4954520;29;20478;-71
2021/11/03 08:40:20;;;;;;;5.93;4.37;;;9.60;83.70;;;;;;4954368;29;20478;-72
2021/11/03 08:42:46;;;;;;;5.07;3.67;;;9.60;85.30;;;;;;4953910;29;20553;-71
2021/11/03 08:45:13;;;;;;;4.87;3.70;;;9.60;85.90;;;;;;4953678;28;20439;-71
2021/11/03 08:47:41;;;;;;;6.33;4.20;;;9.70;86.60;;;;;;4946693;29;20917;-70
2021/11/03 08:50:10;;;;;;;5.00;4.10;;;9.60;86.80;;;;;;4953903;28;20507;-70
2021/11/03 08:52:36;;;;;;;5.47;4.20;;;9.40;87.30;;;;;;4953223;29;20419;-70
2021/11/03 08:55:02;;;;;;;5.70;4.57;;;9.30;87.40;;;;;;4953174;28;20531;-71
2021/11/03 08:57:28;;;;;;;5.83;4.60;;;9.30;88.00;;;;;;4954122;28;20207;-71
2021/11/03 08:59:55;;;;;;;6.53;4.47;;;9.20;88.90;;;;;;4955152;28;20467;-72
2021/11/03 09:02:22;;;;;;;7.30;4.83;;;9.10;88.60;;;;;;4954233;28;20188;-72
2021/11/03 09:04:49;;;;;;;6.20;3.73;;;9.00;88.40;;;;;;4953477;28;20553;-71
2021/11/03 09:07:15;;;;;;;6.60;3.80;;;9.00;89.30;;;;;;4949548;29;20766;-69
2021/11/03 09:09:47;;;;;;;6.60;4.10;;;9.00;88.90;;;;;;4950684;28;20419;-71
2021/11/03 09:12:15;;;;;;;6.80;4.17;;;9.00;89.20;;;;;;4946896;28;20435;-71
2021/11/03 09:14:41;;;;;;;4.63;3.77;;;9.10;89.60;;;;;;4949379;28;20450;-70
2021/11/03 09:17:09;;;;;;;6.77;3.40;;;9.10;89.30;;;;;;4953278;29;20793;-70
2021/11/03 09:19:35;;;;;;;6.40;3.60;;;9.10;89.20;;;;;;4954544;29;20477;-72
2021/11/03 09:22:01;;;;;;;6.90;4.20;;;9.20;87.70;;;;;;4955557;28;20439;-75
2021/11/03 09:24:27;;;;;;;7.30;3.80;;;9.30;88.40;;;;;;4954489;28;20505;-76
2021/11/03 09:26:53;;;;;;;6.23;3.60;;;9.50;87.70;;;;;;4952993;28;20867;-75
2021/11/03 09:29:18;;;;;;;7.30;4.00;;;9.70;87.10;;;;;;4941100;29;21074;-75
2021/11/03 09:31:44;;;;;;;7.77;3.83;;;9.90;85.90;;;;;;4950887;28;20188;-74
2021/11/03 09:34:11;;;;;;;8.80;3.83;;;10.00;85.90;;;;;;4953977;28;20226;-74
2021/11/03 09:36:41;;;;;;;5.57;4.20;;;10.00;85.60;;;;;;4956845;28;20420;-76
2021/11/03 09:39:07;;;;;;;6.30;3.93;;;10.20;85.50;;;;;;4953516;28;20459;-73
2021/11/03 09:41:49;;;;;;;3.73;3.10;;;10.40;85.00;;;;;;4954758;28;20427;-75
2021/11/03 09:44:24;;;;;;;10.80;3.67;;;10.50;84.10;;;;;;4951280;28;20542;-72
2021/11/03 09:46:59;;;;;;;4.53;3.27;;;10.60;82.80;;;;;;4953062;28;20925;-74
2021/11/03 09:49:37;;;;;;;3.73;2.53;;;10.80;80.90;;;;;;4954443;28;20423;-74
2021/11/03 09:52:14;;;;;;;4.80;2.70;;;10.90;78.30;;;;;;4954764;28;20443;-76
2021/11/03 09:54:44;;;;;;;4.73;2.67;;;10.80;77.80;;;;;;4951875;28;20451;-72
2021/11/03 09:57:17;;;;;;;13.20;3.33;;;10.90;77.70;;;;;;4955633;28;20523;-74
2021/11/03 10:00:10;;;;;;;3.70;2.57;;;10.90;76.70;;;;;;4954177;28;20538;-77
2021/11/03 10:02:57;;;;;;;4.47;2.90;;;10.90;76.70;;;;;;4949787;28;20432;-77
2021/11/03 10:05:38;;;;;;;6.03;2.93;;;10.80;76.80;;;;;;4952377;29;20450;-73
2021/11/03 10:08:12;;;;;;;3.60;2.53;;;10.80;77.80;;;;;;4952462;29;20482;-75
2021/11/03 10:10:51;;;;;;;4.50;2.57;;;10.90;77.40;;;;;;4949529;29;20431;-76
2021/11/03 10:13:30;;;;;;;9.40;2.70;;;10.90;76.80;;;;;;4950552;28;20428;-74
2021/11/03 10:16:14;;;;;;;5.20;2.77;;;10.80;77.00;;;;;;4952516;29;20446;-74
2021/11/03 10:18:52;;;;;;;6.33;2.47;;;10.60;77.40;;;;;;4952618;28;20431;-74
2021/11/03 10:21:20;;;;;;;5.17;2.83;;;10.80;77.60;;;;;;4945076;28;20438;-73
2021/11/03 10:23:58;;;;;;;4.60;2.40;;;10.90;76.70;;;;;;4952054;28;20462;-76
2021/11/03 10:26:26;;;;;;;4.30;2.80;;;10.90;76.40;;;;;;4952766;28;20471;-74
2021/11/03 10:29:26;;;;;;;4.20;2.60;;;10.80;77.60;;;;;;4951173;29;20424;-74
2021/11/03 10:31:54;;;;;;;5.90;3.00;;;10.80;77.60;;;;;;4948756;28;20485;-73
2021/11/03 10:34:35;;;;;;;4.50;2.67;;;10.70;78.00;;;;;;4951776;28;20574;-75
2021/11/03 10:37:13;;;;;;;4.43;2.70;;;10.70;78.60;;;;;;4952257;29;20432;-74
2021/11/03 10:40:05;;;;;;;4.33;2.63;;;10.70;79.00;;;;;;4947364;29;20898;-74
2021/11/03 10:42:42;;;;;;;5.80;3.50;;;10.70;78.40;;;;;;4951462;29;20435;-75
2021/11/03 10:45:38;;;;;;;6.00;2.90;;;10.80;78.60;;;;;;4954674;28;20465;-76
2021/11/03 10:48:07;;;;;;;3.00;2.40;;;10.90;78.90;;;;;;4956800;29;20423;-74
2021/11/03 10:50:57;;;;;;;7.10;2.80;;;11.10;78.70;;;;;;4950167;29;20423;-75
2021/11/03 10:53:24;;;;;;;3.50;2.57;;;11.00;75.50;;;;;;4957810;28;20436;-75
2021/11/03 10:56:33;;;;;;;5.43;2.73;;;10.90;77.60;;;;;;4955866;28;20925;-75
2021/11/03 10:59:18;;;;;;;4.50;3.00;;;10.90;78.10;;;;;;4974591;28;20469;-74
2021/11/03 11:01:45;;;;;;;5.77;3.30;;;10.80;76.80;;;;;;4974839;28;20422;-73
2021/11/03 11:04:16;;;;;;;6.40;3.13;;;10.70;77.60;;;;;;4972900;28;20870;-74
2021/11/03 11:06:56;;;;;;;4.37;2.90;;;10.70;78.00;;;;;;4976076;28;20449;-74
2021/11/03 11:09:36;;;;;;;3.70;3.20;;;10.70;77.30;;;;;;4978408;28;20427;-74
2021/11/03 11:12:31;;;;;;;4.40;2.67;;;10.60;78.30;;;;;;4981002;28;20450;-75
2021/11/03 11:15:15;;;;;;;5.70;3.23;;;10.60;78.60;;;;;;4974373;28;20454;-75
2021/11/03 11:18:33;;;;;;;5.57;3.30;;;10.70;77.80;;;;;;4973604;28;21249;-75
2021/11/03 11:21:04;;;;;;;5.70;3.00;;;10.80;78.10;;;;;;4968957;28;20489;-75
2021/11/03 11:23:40;;;;;;;5.00;3.23;;;10.90;75.90;;;;;;4969561;28;20457;-73
2021/11/03 11:26:53;;;;;;;4.00;2.73;;;11.00;75.80;;;;;;4963010;28;20474;-75
2021/11/03 11:29:45;;;;;;;4.57;2.83;;;10.90;75.20;;;;;;4920264;29;20441;-74
2021/11/03 11:32:26;;;;;;;6.50;3.10;;;10.90;75.40;;;;;;4907010;29;20481;-74
2021/11/03 11:35:14;;;;;;;8.87;3.47;;;10.90;74.80;;;;;;4876441;29;20939;-75
2021/11/03 11:38:04;;;;;;;3.60;2.90;;;10.90;75.50;;;;;;4871957;29;20991;-74
2021/11/03 11:40:44;;;;;;;6.57;3.30;;;11.00;76.10;;;;;;4872693;29;21042;-74
2021/11/03 11:43:40;;;;;;;5.23;2.90;;;11.00;75.90;;;;;;4877060;29;20434;-75
2021/11/03 11:46:15;;;;;;;3.73;2.70;;;11.10;75.10;;;;;;4876125;29;20518;-74
2021/11/03 11:48:43;;;;;;;5.87;2.73;;;11.10;76.20;;;;;;4877742;29;20509;-74
2021/11/03 11:51:21;;;;;;;4.30;2.53;;;11.00;77.10;;;;;;4876767;29;20449;-74
2021/11/03 11:53:47;;;;;;;3.90;2.60;;;11.00;77.00;;;;;;4877086;29;20505;-74
2021/11/03 11:56:25;;;;;;;4.60;2.23;;;11.20;75.90;;;;;;4877291;29;20542;-74
2021/11/03 11:59:11;;;;;;;3.07;2.20;;;11.30;74.90;;;;;;4880211;29;20213;-74
2021/11/03 12:01:49;;;;;;;5.43;2.27;;;11.30;74.90;;;;;;4872715;29;20567;-75
2021/11/03 12:04:21;;;;;;;4.10;2.53;;;11.30;75.20;;;;;;4946652;29;20420;-75
2021/11/03 12:06:53;;;;;;;3.60;2.17;;;11.30;75.50;;;;;;4958619;29;20419;-74
2021/11/03 12:09:33;;;;;;;4.60;2.27;;;11.40;74.50;;;;;;4956030;28;20423;-74
2021/11/03 12:11:59;;;;;;;4.90;2.20;;;11.40;74.00;;;;;;4954779;29;20451;-73
2021/11/03 12:14:47;;;;;;;4.73;2.17;;;11.40;74.30;;;;;;4954437;28;20443;-75
2021/11/03 12:17:54;;;;;;;4.13;2.63;;;11.30;74.60;;;;;;4953729;28;20215;-73
2021/11/03 12:20:26;;;;;;;3.90;2.10;;;11.30;74.90;;;;;;4954228;29;20471;-75
2021/11/03 12:23:02;;;;;;;3.87;2.47;;;11.20;74.90;;;;;;4954375;29;20937;-74
2021/11/03 12:25:30;;;;;;;5.83;2.10;;;11.10;75.20;;;;;;4954526;29;20934;-74
2021/11/03 12:28:11;;;;;;;4.63;2.60;;;11.10;75.50;;;;;;4955787;29;20507;-75
2021/11/03 12:30:42;;;;;;;6.70;2.07;;;11.20;75.50;;;;;;4949441;29;20442;-74
2021/11/03 12:33:14;;;;;;;2.83;2.07;;;11.20;75.70;;;;;;4953697;28;20428;-74
2021/11/03 12:35:40;;;;;;;5.40;2.57;;;11.10;75.90;;;;;;4954673;28;20466;-75
2021/11/03 12:38:11;;;;;;;3.10;2.00;;;11.10;76.80;;;;;;4949351;29;20419;-74
2021/11/03 12:40:37;;;;;;;5.47;2.30;;;11.20;76.50;;;;;;4954858;29;20586;-74
2021/11/03 12:43:24;;;;;;;6.90;2.50;;;11.20;76.20;;;;;;4947576;29;20502;-75
2021/11/03 12:46:08;;;;;;;5.53;2.13;;;11.20;76.20;;;;;;4948282;28;20215;-74
2021/11/03 12:48:50;;;;;;;3.07;2.03;;;11.10;77.40;;;;;;4955702;29;20443;-74
2021/11/03 12:51:19;;;;;;;3.87;2.80;;;11.20;78.10;;;;;;4955319;29;20415;-73
2021/11/03 12:53:56;;;;;;;2.60;2.17;;;11.10;77.80;;;;;;4953895;28;20988;-74
2021/11/03 12:56:29;;;;;;;3.93;2.20;;;11.20;78.90;;;;;;4946687;28;20518;-74
2021/11/03 12:58:57;;;;;;;4.10;2.00;;;11.20;79.20;;;;;;4953491;29;20455;-75
2021/11/03 13:01:45;;;;;;;4.67;2.60;;;11.20;80.80;;;;;;4948830;29;20459;-74
2021/11/03 13:04:43;;;;;;;6.63;2.33;;;11.10;80.30;;;;;;4959530;28;20432;-75
2021/11/03 13:07:41;;;;;;;4.97;2.30;;;10.90;80.90;;;;;;4951148;28;20430;-74
2021/11/03 13:10:16;;;;;;;5.10;2.53;;;10.80;81.70;;;;;;4955051;28;20442;-74
2021/11/03 13:12:56;;;;;;;2.97;2.30;;;10.70;82.80;;;;;;4970963;28;20434;-75